createdAt,value
2023-03-22T00:02:10.727Z,2.00
2023-03-22T00:04:37.442Z,1.90
2023-03-22T00:07:04.125Z,2.08
2023-03-22T00:09:30.900Z,1.77
2023-03-22T00:11:57.588Z,1.90
2023-03-22T00:14:24.435Z,1.92
2023-03-22T00:16:51.122Z,1.85
2023-03-22T00:19:17.812Z,1.92
2023-03-22T00:21:44.611Z,1.73
2023-03-22T00:24:11.347Z,2.28
2023-03-22T00:26:38.175Z,1.90
2023-03-22T00:29:05.065Z,1.95
2023-03-22T00:31:31.870Z,2.25
2023-03-22T00:33:58.652Z,2.10
2023-03-22T00:36:25.412Z,2.58
2023-03-22T00:38:52.191Z,2.28
2023-03-22T00:41:20.900Z,2.03
2023-03-22T00:43:48.085Z,2.20
2023-03-22T00:46:16.231Z,2.40
2023-03-22T00:48:43.012Z,2.47
2023-03-22T00:51:09.958Z,2.65
2023-03-22T00:53:37.146Z,2.53
2023-03-22T00:56:05.515Z,2.30
2023-03-22T00:58:32.463Z,2.38
2023-03-22T01:00:59.258Z,2.55
2023-03-22T01:03:26.142Z,2.38
2023-03-22T01:05:56.788Z,1.98
2023-03-22T01:08:24.418Z,2.22
2023-03-22T01:10:51.522Z,2.50
2023-03-22T01:13:18.514Z,2.72
2023-03-22T01:15:47.673Z,2.70
2023-03-22T01:18:14.420Z,2.75
2023-03-22T01:20:41.416Z,3.00
2023-03-22T01:23:08.415Z,2.78
2023-03-22T01:25:35.212Z,2.30
2023-03-22T01:28:06.694Z,2.30
2023-03-22T01:30:33.518Z,2.20
2023-03-22T01:33:00.287Z,2.47
2023-03-22T01:35:27.063Z,2.38
2023-03-22T01:37:53.888Z,2.58
2023-03-22T01:40:20.907Z,2.45
2023-03-22T01:42:47.692Z,2.35
2023-03-22T01:45:14.409Z,2.38
2023-03-22T01:47:43.993Z,2.38
2023-03-22T01:50:10.881Z,2.25
2023-03-22T01:52:38.170Z,2.15
2023-03-22T01:55:06.279Z,2.30
2023-03-22T01:57:37.411Z,2.17
2023-03-22T02:00:15.210Z,2.00
2023-03-22T02:02:43.652Z,1.95
2023-03-22T02:05:12.239Z,2.00
2023-03-22T02:07:41.033Z,2.10
2023-03-22T02:10:20.453Z,2.70
2023-03-22T02:13:15.376Z,2.25
2023-03-22T02:16:03.241Z,2.42
2023-03-22T02:19:08.517Z,2.10
2023-03-22T02:22:14.568Z,2.30
2023-03-22T02:24:55.559Z,2.20
2023-03-22T02:28:04.328Z,2.30
2023-03-22T02:30:34.028Z,2.47
2023-03-22T02:33:07.651Z,2.08
2023-03-22T02:35:38.988Z,2.05
2023-03-22T02:38:24.826Z,1.88
2023-03-22T02:41:08.168Z,2.22
2023-03-22T02:43:38.479Z,2.03
2023-03-22T02:46:46.519Z,1.77
2023-03-22T02:49:22.497Z,1.85
2023-03-22T02:52:03.195Z,2.10
2023-03-22T02:54:55.160Z,1.90
2023-03-22T02:57:26.596Z,2.10
2023-03-22T02:59:53.689Z,1.90
2023-03-22T03:02:22.058Z,2.65
2023-03-22T03:04:51.038Z,4.40
2023-03-22T03:07:21.891Z,3.25
2023-03-22T03:09:49.298Z,4.18
2023-03-22T03:12:24.131Z,2.63
2023-03-22T03:17:36.796Z,2.10
2023-03-22T03:20:15.092Z,2.38
2023-03-22T03:23:01.352Z,1.90
2023-03-22T03:25:46.307Z,2.00
2023-03-22T03:28:22.861Z,2.22
2023-03-22T03:30:59.653Z,1.85
2023-03-22T03:33:27.546Z,2.22
2023-03-22T03:36:02.066Z,2.03
2023-03-22T03:38:31.395Z,1.80
2023-03-22T03:41:03.985Z,2.00
2023-03-22T03:43:31.728Z,1.80
2023-03-22T03:45:58.725Z,1.75
2023-03-22T03:48:28.724Z,2.20
2023-03-22T03:50:57.000Z,2.08
2023-03-22T03:53:23.857Z,2.10
2023-03-22T03:55:50.495Z,1.70
2023-03-22T03:58:17.249Z,1.90
2023-03-22T04:00:46.354Z,1.80
2023-03-22T04:03:13.325Z,2.08
2023-03-22T04:05:40.029Z,1.73
2023-03-22T04:08:07.075Z,1.92
2023-03-22T04:10:33.786Z,2.17
2023-03-22T04:13:00.566Z,1.95
2023-03-22T04:15:27.227Z,2.20
2023-03-22T04:17:54.014Z,2.08
2023-03-22T04:20:20.986Z,2.20
2023-03-22T04:22:48.961Z,2.25
2023-03-22T04:25:18.230Z,2.28
2023-03-22T04:27:47.239Z,2.30
2023-03-22T04:30:22.216Z,2.00
2023-03-22T04:32:49.529Z,2.30
2023-03-22T04:35:16.616Z,2.83
2023-03-22T04:37:43.317Z,3.20
2023-03-22T04:40:16.474Z,3.00
2023-03-22T04:42:44.205Z,3.30
2023-03-22T04:45:12.260Z,2.83
2023-03-22T04:47:39.105Z,2.70
2023-03-22T04:50:07.246Z,2.30
2023-03-22T04:52:33.945Z,2.15
2023-03-22T04:55:00.584Z,2.55
2023-03-22T04:57:27.343Z,2.47
2023-03-22T04:59:54.026Z,2.35
2023-03-22T05:02:20.770Z,2.30
2023-03-22T05:04:47.448Z,2.28
2023-03-22T05:07:14.218Z,2.33
2023-03-22T05:09:40.939Z,2.30
2023-03-22T05:12:07.697Z,2.50
2023-03-22T05:14:34.499Z,1.90
2023-03-22T05:17:01.230Z,2.35
2023-03-22T05:19:27.869Z,2.38
2023-03-22T05:21:58.444Z,1.90
2023-03-22T05:24:25.552Z,2.30
2023-03-22T05:26:53.766Z,2.03
2023-03-22T05:29:21.372Z,1.90
2023-03-22T05:31:48.593Z,2.10
2023-03-22T05:34:15.431Z,2.15
2023-03-22T05:36:42.236Z,2.05
2023-03-22T05:39:08.933Z,1.75
2023-03-22T05:41:36.795Z,2.05
2023-03-22T05:44:04.600Z,2.00
2023-03-22T05:46:31.336Z,1.95
2023-03-22T05:48:58.105Z,1.88
2023-03-22T05:51:25.791Z,2.38
2023-03-22T05:53:53.525Z,1.60
2023-03-22T05:56:24.094Z,1.50
2023-03-22T05:58:51.743Z,1.83
2023-03-22T06:01:20.377Z,1.85
2023-03-22T06:03:48.451Z,1.80
2023-03-22T06:06:15.772Z,1.75
2023-03-22T06:08:42.850Z,1.60
2023-03-22T06:11:09.700Z,1.83
2023-03-22T06:13:37.434Z,1.50
2023-03-22T06:16:05.361Z,1.38
2023-03-22T06:18:32.967Z,1.58
2023-03-22T06:21:00.235Z,1.40
2023-03-22T06:23:27.136Z,2.80
2023-03-22T06:25:54.244Z,2.90
2023-03-22T06:28:20.973Z,5.20
2023-03-22T06:30:47.816Z,2.10
2023-03-22T06:33:14.520Z,1.55
2023-03-22T06:35:41.293Z,1.60
2023-03-22T06:38:08.001Z,1.50
2023-03-22T06:40:36.029Z,1.50
2023-03-22T06:43:06.798Z,1.20
2023-03-22T06:45:33.968Z,1.38
2023-03-22T06:48:01.301Z,1.20
2023-03-22T06:50:28.854Z,1.30
2023-03-22T06:52:55.662Z,1.50
2023-03-22T06:55:22.338Z,1.25
2023-03-22T06:57:48.962Z,1.13
2023-03-22T07:00:16.578Z,1.27
2023-03-22T07:02:43.280Z,1.38
2023-03-22T07:05:10.671Z,1.15
2023-03-22T07:07:37.383Z,1.20
2023-03-22T07:10:04.343Z,1.20
2023-03-22T07:12:30.981Z,6.38
2023-03-22T07:14:57.944Z,2.58
2023-03-22T07:17:24.687Z,1.67
2023-03-22T07:19:51.341Z,1.02
2023-03-22T07:22:18.261Z,1.20
2023-03-22T07:24:56.162Z,0.73
2023-03-22T07:27:24.810Z,0.70
2023-03-22T07:29:51.489Z,0.80
2023-03-22T07:32:18.270Z,0.50
2023-03-22T07:34:45.134Z,0.85
2023-03-22T07:37:11.977Z,0.60
2023-03-22T07:39:38.802Z,0.80
2023-03-22T07:42:05.545Z,0.65
2023-03-22T07:44:32.272Z,0.60
2023-03-22T07:46:59.035Z,0.52
2023-03-22T07:49:27.122Z,0.80
2023-03-22T07:51:54.073Z,0.60
2023-03-22T07:54:32.913Z,0.65
2023-03-22T07:57:01.012Z,0.73
2023-03-22T07:59:27.724Z,0.45
2023-03-22T08:01:54.735Z,0.50
2023-03-22T08:04:22.443Z,0.60
2023-03-22T08:06:49.761Z,0.50
2023-03-22T08:09:16.485Z,0.40
2023-03-22T08:11:43.384Z,0.60
2023-03-22T08:14:10.156Z,0.50
2023-03-22T08:16:38.268Z,0.60
2023-03-22T08:19:05.097Z,0.70
2023-03-22T08:21:31.744Z,0.60
2023-03-22T08:23:58.562Z,0.80
2023-03-22T08:26:25.472Z,0.50
2023-03-22T08:28:52.160Z,0.43
2023-03-22T08:31:20.045Z,0.60
2023-03-22T08:33:47.535Z,0.70
2023-03-22T08:36:17.770Z,0.38
2023-03-22T08:38:45.177Z,0.40
2023-03-22T08:41:12.874Z,0.80
2023-03-22T08:43:39.829Z,0.60
2023-03-22T08:46:06.571Z,0.60
2023-03-22T08:48:35.394Z,0.50
2023-03-22T08:51:02.438Z,0.65
2023-03-22T08:53:29.086Z,0.32
2023-03-22T08:55:57.995Z,0.60
2023-03-22T08:58:24.642Z,0.57
2023-03-22T09:00:51.602Z,0.63
2023-03-22T09:03:18.335Z,0.60
2023-03-22T09:05:45.223Z,0.60
2023-03-22T09:08:18.589Z,0.82
2023-03-22T09:10:52.496Z,0.80
2023-03-22T09:13:19.621Z,0.50
2023-03-22T09:15:46.992Z,0.50
2023-03-22T09:18:14.537Z,0.50
2023-03-22T09:20:41.398Z,0.60
2023-03-22T09:23:08.326Z,0.82
2023-03-22T09:25:35.290Z,0.40
2023-03-22T09:28:02.322Z,0.35
2023-03-22T09:30:29.057Z,0.60
2023-03-22T09:32:55.935Z,0.40
2023-03-22T09:35:23.040Z,0.47
2023-03-22T09:37:53.073Z,0.47
2023-03-22T09:40:20.795Z,0.40
2023-03-22T09:42:52.469Z,0.40
2023-03-22T09:45:35.145Z,0.50
2023-03-22T09:48:04.880Z,0.57
2023-03-22T09:50:32.931Z,0.50
2023-03-22T09:53:00.269Z,0.45
2023-03-22T09:55:45.924Z,0.38
2023-03-22T09:58:18.344Z,0.55
2023-03-22T10:00:50.011Z,0.68
2023-03-22T10:03:21.299Z,0.80
2023-03-22T10:06:02.388Z,1.33
2023-03-22T10:08:36.796Z,0.60
2023-03-22T10:11:07.582Z,0.63
2023-03-22T10:13:40.589Z,0.50
2023-03-22T10:16:11.699Z,0.80
2023-03-22T10:18:41.375Z,0.55
2023-03-22T10:21:13.112Z,0.60
2023-03-22T10:23:52.556Z,0.60
2023-03-22T10:26:23.724Z,0.70
2023-03-22T10:28:59.884Z,0.88
2023-03-22T10:31:29.184Z,0.50
2023-03-22T10:33:59.270Z,0.70
2023-03-22T10:36:33.324Z,0.60
2023-03-22T10:39:14.500Z,0.70
2023-03-22T10:41:41.400Z,0.80
2023-03-22T10:44:08.116Z,0.70
2023-03-22T10:46:38.448Z,0.50
2023-03-22T10:49:06.154Z,0.60
2023-03-22T10:51:39.088Z,0.70
2023-03-22T10:54:06.070Z,0.50
2023-03-22T10:56:32.740Z,0.50
2023-03-22T10:58:59.365Z,0.40
2023-03-22T11:01:32.247Z,0.47
2023-03-22T11:04:13.242Z,0.60
2023-03-22T11:07:00.254Z,0.60
2023-03-22T11:09:26.949Z,0.70
2023-03-22T11:11:59.325Z,0.55
2023-03-22T11:14:35.576Z,0.55
2023-03-22T11:17:13.978Z,0.57
2023-03-22T11:19:42.660Z,0.55
2023-03-22T11:22:26.482Z,0.60
2023-03-22T11:24:56.176Z,0.70
2023-03-22T11:27:31.185Z,0.60
2023-03-22T11:30:21.826Z,0.70
2023-03-22T11:32:49.160Z,0.80
2023-03-22T11:35:22.504Z,0.65
2023-03-22T11:37:51.240Z,0.70
2023-03-22T11:40:27.230Z,0.63
2023-03-22T11:43:18.837Z,0.70
2023-03-22T11:45:45.975Z,0.55
2023-03-22T11:48:19.347Z,0.68
2023-03-22T11:50:46.648Z,0.60
2023-03-22T11:53:19.499Z,0.90
2023-03-22T11:55:48.699Z,0.60
2023-03-22T11:58:28.147Z,0.70
2023-03-22T12:00:58.939Z,0.70
2023-03-22T12:03:29.821Z,0.60
2023-03-22T12:05:57.559Z,0.55
2023-03-22T12:08:45.275Z,0.63
2023-03-22T12:11:21.378Z,0.68
2023-03-22T12:14:06.910Z,1.17
2023-03-22T12:16:56.618Z,0.90
2023-03-22T12:19:47.266Z,0.57
2023-03-22T12:22:16.964Z,0.55
2023-03-22T12:24:43.877Z,0.73
2023-03-22T12:27:34.354Z,0.68
2023-03-22T12:30:04.233Z,0.73
2023-03-22T12:32:36.962Z,0.60
2023-03-22T12:35:16.720Z,0.60
2023-03-22T12:37:46.934Z,0.50
2023-03-22T12:40:22.334Z,0.70
2023-03-22T12:43:15.059Z,0.77
2023-03-22T12:45:53.454Z,0.55
2023-03-22T12:48:31.159Z,0.68
2023-03-22T12:51:04.906Z,0.60
2023-03-22T12:53:42.282Z,0.80
2023-03-22T12:56:24.851Z,0.80
2023-03-22T12:58:55.480Z,0.90
2023-03-22T13:01:59.176Z,0.70
2023-03-22T13:04:32.058Z,0.80
2023-03-22T13:07:11.217Z,0.73
2023-03-22T13:09:42.526Z,0.77
2023-03-22T13:12:15.656Z,0.77
2023-03-22T13:15:13.508Z,0.70
2023-03-22T13:17:43.481Z,0.95
2023-03-22T13:20:14.665Z,0.60
2023-03-22T13:22:44.009Z,0.82
2023-03-22T13:25:13.565Z,0.80
2023-03-22T13:27:52.649Z,0.80
2023-03-22T13:30:48.990Z,0.90
2023-03-22T13:33:27.673Z,0.73
2023-03-22T13:35:56.900Z,0.90
2023-03-22T13:38:32.957Z,0.90
2023-03-22T13:41:13.684Z,1.00
2023-03-22T13:43:43.383Z,0.90
2023-03-22T13:46:27.861Z,0.98
2023-03-22T13:49:14.468Z,0.80
2023-03-22T13:51:41.250Z,1.05
2023-03-22T13:54:13.928Z,0.98
2023-03-22T13:57:03.053Z,0.85
2023-03-22T13:59:33.656Z,1.23
2023-03-22T14:02:07.500Z,1.80
2023-03-22T14:04:50.889Z,1.10
2023-03-22T14:07:29.103Z,0.85
2023-03-22T14:10:16.331Z,1.00
2023-03-22T14:12:50.872Z,0.90
2023-03-22T14:18:14.274Z,1.00
2023-03-22T14:20:41.826Z,1.00
